Time;durP1;ratioP1;P1;durP2;ratioP2;P2;SDS_P1;SDS_P2;PMS_P1;PMS_P2;Temp;Humidity;BMP_temperature;BMP_pressure;BME280_temperature;BME280_humidity;BME280_pressure;Samples;Min_cycle;Max_cycle;Signal;HPM_P1;HPM_P2
2021/10/16 00:01:16;;;;;;;3.95;1.83;;;;;;;9.11;62.65;93426.97;5012497;28;20399;-72
2021/10/16 00:03:42;;;;;;;1.80;1.30;;;;;;;9.11;62.44;93426.97;5013372;28;20037;-72
2021/10/16 00:06:07;;;;;;;2.45;1.10;;;;;;;9.00;62.48;93404.47;5002715;28;20041;-73
2021/10/16 00:08:32;;;;;;;0.60;0.60;;;;;;;9.01;62.51;93403.38;4994630;28;20614;-74
2021/10/16 00:10:58;;;;;;;3.65;2.97;;;;;;;9.07;62.78;93414.63;5010409;28;20449;-73
2021/10/16 00:13:23;;;;;;;7.65;4.60;;;;;;;8.94;63.14;93403.88;5007920;28;20037;-72
2021/10/16 00:15:49;;;;;;;5.63;3.83;;;;;;;9.00;62.97;93401.81;5008787;28;20616;-72
2021/10/16 00:18:15;;;;;;;3.53;2.20;;;;;;;9.00;63.17;93407.13;5004918;28;20532;-73
2021/10/16 00:20:40;;;;;;;1.90;1.55;;;;;;;9.03;63.13;93409.16;5012363;28;20543;-72
2021/10/16 00:23:06;;;;;;;2.85;1.25;;;;;;;9.01;63.23;93414.00;5015561;28;20037;-72
2021/10/16 00:25:37;;;;;;;10.27;4.38;;;;;;;9.06;62.65;93408.53;5012605;28;20547;-74
2021/10/16 00:28:02;;;;;;;5.93;2.78;;;;;;;9.11;62.70;93411.06;5004605;28;20555;-73
2021/10/16 00:30:27;;;;;;;1.70;1.30;;;;;;;8.73;62.56;93349.09;5013348;28;20040;-72
2021/10/16 00:32:53;;;;;;;17.40;3.95;;;;;;;8.82;63.40;93393.09;5016445;28;20041;-72
2021/10/16 00:35:19;;;;;;;2.70;1.05;;;;;;;8.90;63.17;93386.25;5005337;28;21505;-73
2021/10/16 00:37:45;;;;;;;0.93;0.90;;;;;;;8.99;63.18;93398.41;5014489;28;20056;-72
2021/10/16 00:40:10;;;;;;;13.57;4.03;;;;;;;8.92;63.25;93394.66;5012636;28;20836;-72
2021/10/16 00:42:47;;;;;;;9.40;2.90;;;;;;;8.96;63.31;93396.38;5013852;28;20041;-73
2021/10/16 00:45:14;;;;;;;1.52;1.23;;;;;;;8.85;63.61;93394.34;5013671;28;20041;-73
2021/10/16 00:47:39;;;;;;;1.00;0.90;;;;;;;8.68;63.84;93367.81;5008111;28;20041;-71
2021/10/16 00:50:05;;;;;;;1.05;0.95;;;;;;;8.90;63.99;93394.19;5011813;28;20504;-72
2021/10/16 00:52:31;;;;;;;0.80;0.80;;;;;;;8.78;63.54;93364.84;5006236;28;20025;-73
2021/10/16 00:54:57;;;;;;;0.60;0.60;;;;;;;8.91;63.44;93382.47;5010485;28;20496;-72
2021/10/16 00:57:22;;;;;;;1.20;1.10;;;;;;;9.02;62.92;93384.50;5013197;28;20064;-72
2021/10/16 00:59:48;;;;;;;0.63;0.63;;;;;;;8.92;63.24;93389.34;5006592;28;20124;-72
2021/10/16 01:02:19;;;;;;;0.50;0.50;;;;;;;8.68;64.27;93386.38;5012814;28;20129;-72
2021/10/16 01:04:48;;;;;;;34.28;7.40;;;;;;;8.65;64.34;93389.66;5018883;28;20682;-72
2021/10/16 01:07:14;;;;;;;2.10;1.30;;;;;;;8.40;65.30;93367.31;5013879;28;20029;-72
2021/10/16 01:09:43;;;;;;;0.80;0.80;;;;;;;8.41;66.06;93382.91;5011393;28;20053;-73
2021/10/16 01:12:09;;;;;;;2.55;0.80;;;;;;;8.49;65.50;93384.81;5015649;28;20057;-73
2021/10/16 01:14:43;;;;;;;1.65;1.20;;;;;;;8.61;65.66;93386.06;5011566;28;20045;-72
2021/10/16 01:17:11;;;;;;;3.15;1.90;;;;;;;8.46;65.14;93363.44;5015460;28;20719;-72
2021/10/16 01:19:40;;;;;;;1.63;0.70;;;;;;;8.65;65.05;93387.78;5010209;28;20464;-72
2021/10/16 01:22:10;;;;;;;13.15;4.10;;;;;;;8.70;65.31;93387.63;5010517;28;20514;-72
2021/10/16 01:24:40;;;;;;;8.80;2.80;;;;;;;8.75;65.43;93384.84;5009290;28;20036;-74
2021/10/16 01:27:07;;;;;;;3.20;1.52;;;;;;;8.78;64.72;93378.13;5013859;28;20224;-72
2021/10/16 01:29:35;;;;;;;5.90;2.25;;;;;;;8.94;64.72;93384.53;5014148;28;20056;-72
2021/10/16 01:32:02;;;;;;;2.08;1.52;;;;;;;8.97;64.41;93370.63;5008356;28;20064;-73
2021/10/16 01:34:28;;;;;;;1.17;0.80;;;;;;;9.22;63.42;93387.66;5015075;28;20051;-73
2021/10/16 01:36:54;;;;;;;1.73;1.15;;;;;;;9.18;63.36;93381.41;5016235;28;20073;-72
2021/10/16 01:39:20;;;;;;;2.85;2.05;;;;;;;9.09;63.69;93393.88;5005559;28;20148;-73
2021/10/16 01:41:46;;;;;;;1.13;0.88;;;;;;;9.12;63.94;93385.31;5008756;28;20085;-72
2021/10/16 01:44:14;;;;;;;4.97;1.42;;;;;;;9.29;63.40;93390.63;5012967;28;20288;-73
2021/10/16 01:46:40;;;;;;;1.00;0.80;;;;;;;9.31;63.43;93381.22;5007363;28;20065;-72
2021/10/16 01:49:11;;;;;;;0.57;0.57;;;;;;;9.39;63.70;93391.03;5009583;28;20025;-72
2021/10/16 01:51:37;;;;;;;13.00;4.97;;;;;;;9.44;63.53;93388.22;5006625;28;20579;-73
2021/10/16 01:54:03;;;;;;;8.65;3.38;;;;;;;9.55;62.56;93393.19;5009833;28;20052;-72
2021/10/16 01:56:29;;;;;;;4.90;1.63;;;;;;;9.40;62.51;93371.38;5008695;28;20234;-72
2021/10/16 01:58:54;;;;;;;5.57;2.13;;;;;;;9.33;62.85;93370.31;5012737;28;20021;-72
2021/10/16 02:01:20;;;;;;;4.13;1.40;;;;;;;9.47;62.68;93383.38;5016801;28;20017;-72
2021/10/16 02:03:47;;;;;;;1.40;1.00;;;;;;;9.44;62.84;93379.47;5014754;28;20156;-74
2021/10/16 02:06:12;;;;;;;2.90;1.52;;;;;;;9.40;62.84;93375.91;5012578;28;20029;-72
2021/10/16 02:08:38;;;;;;;1.67;0.88;;;;;;;9.43;62.45;93384.03;5011225;28;20104;-72
2021/10/16 02:11:07;;;;;;;1.13;0.70;;;;;;;9.53;63.03;93387.44;5015791;28;20046;-72
2021/10/16 02:13:32;;;;;;;1.25;0.98;;;;;;;9.43;63.66;93386.69;5012232;28;20144;-73
2021/10/16 02:15:57;;;;;;;0.90;0.90;;;;;;;9.49;63.22;93386.53;5008383;28;20038;-73
2021/10/16 02:18:23;;;;;;;0.75;0.75;;;;;;;9.54;63.31;93391.63;5010696;28;20397;-72
2021/10/16 02:20:48;;;;;;;2.38;2.17;;;;;;;9.68;62.55;93400.22;5012385;28;20046;-74
2021/10/16 02:23:14;;;;;;;2.67;1.58;;;;;;;9.66;62.47;93402.41;5012587;28;20033;-73
2021/10/16 02:25:39;;;;;;;4.35;1.30;;;;;;;9.67;62.41;93404.75;5010788;28;20025;-72
2021/10/16 02:28:05;;;;;;;2.67;1.00;;;;;;;9.61;62.55;93405.22;5006817;28;20530;-72
2021/10/16 02:30:30;;;;;;;4.60;0.90;;;;;;;9.69;62.48;93391.91;5011624;28;20038;-72
2021/10/16 02:32:55;;;;;;;1.35;1.35;;;;;;;9.71;62.34;93388.94;5013111;28;20041;-73
2021/10/16 02:35:21;;;;;;;2.67;1.20;;;;;;;9.67;62.10;93382.72;5013463;28;20116;-72
2021/10/16 02:37:46;;;;;;;1.45;1.00;;;;;;;9.61;62.59;93398.03;5014416;28;20017;-74
2021/10/16 02:40:11;;;;;;;1.60;0.90;;;;;;;9.63;62.43;93392.41;5011315;28;20399;-72
2021/10/16 02:42:39;;;;;;;1.80;1.10;;;;;;;9.67;61.64;93382.72;5010198;28;20045;-73
2021/10/16 02:45:05;;;;;;;1.85;1.02;;;;;;;9.65;61.98;93384.91;5011542;28;20527;-74
2021/10/16 02:47:31;;;;;;;1.30;0.90;;;;;;;9.71;62.07;93403.00;5011976;28;20147;-73
2021/10/16 02:49:58;;;;;;;1.33;1.20;;;;;;;9.61;62.56;93399.91;5012022;28;20147;-72
2021/10/16 02:52:25;;;;;;;1.17;0.80;;;;;;;9.69;61.72;93385.81;5014204;28;20640;-73
2021/10/16 02:54:50;;;;;;;1.05;0.80;;;;;;;9.81;61.60;93399.22;5011305;28;20667;-73
2021/10/16 02:57:15;;;;;;;2.20;1.00;;;;;;;9.66;61.71;93387.25;5011133;28;21007;-73
2021/10/16 02:59:41;;;;;;;5.43;1.90;;;;;;;9.64;62.16;93393.94;5007396;28;20029;-72
2021/10/16 03:02:06;;;;;;;1.08;1.02;;;;;;;9.68;62.06;93394.91;5014047;28;20083;-72
2021/10/16 03:04:31;;;;;;;0.90;0.90;;;;;;;9.48;63.03;93395.56;5013542;28;20025;-75
2021/10/16 03:06:57;;;;;;;1.58;0.90;;;;;;;9.60;62.44;93398.34;5010297;28;20500;-72
2021/10/16 03:09:22;;;;;;;2.28;0.90;;;;;;;9.61;62.90;93399.91;5012956;28;20041;-72
2021/10/16 03:11:47;;;;;;;3.10;1.52;;;;;;;9.65;62.37;93406.13;5013802;28;20897;-73
2021/10/16 03:14:13;;;;;;;3.28;1.67;;;;;;;9.65;62.46;93398.16;5013157;28;20041;-72
2021/10/16 03:16:38;;;;;;;1.65;1.15;;;;;;;9.43;62.83;93394.66;5010580;28;20590;-74
2021/10/16 03:19:03;;;;;;;1.67;1.40;;;;;;;9.36;63.22;93388.25;5014469;28;20026;-72
2021/10/16 03:21:29;;;;;;;2.97;2.28;;;;;;;9.36;63.87;93402.28;5009009;28;20049;-72
2021/10/16 03:23:54;;;;;;;1.83;1.15;;;;;;;9.33;63.58;93402.94;5015565;28;20445;-72
2021/10/16 03:26:20;;;;;;;1.05;0.90;;;;;;;9.32;63.82;93397.94;5004074;28;20083;-72
2021/10/16 03:28:45;;;;;;;1.20;1.10;;;;;;;9.11;63.98;93387.19;5013109;28;20029;-73
2021/10/16 03:31:10;;;;;;;1.65;1.27;;;;;;;9.17;64.33;93401.06;5008781;28;20025;-72
2021/10/16 03:33:36;;;;;;;1.50;1.40;;;;;;;9.03;64.30;93386.06;5009201;28;20844;-74
2021/10/16 03:36:01;;;;;;;2.40;1.80;;;;;;;9.12;64.44;93399.34;5011169;28;20041;-72
2021/10/16 03:38:26;;;;;;;3.05;2.30;;;;;;;9.20;64.53;93405.75;5012098;28;20040;-72
2021/10/16 03:40:52;;;;;;;1.63;1.52;;;;;;;9.05;64.43;93398.25;5010743;28;20562;-72
2021/10/16 03:43:17;;;;;;;1.55;1.13;;;;;;;9.06;64.46;93408.53;5010726;28;20036;-72
2021/10/16 03:45:43;;;;;;;1.40;1.25;;;;;;;9.05;65.18;93404.31;5014416;28;20073;-72
2021/10/16 03:48:08;;;;;;;1.05;1.00;;;;;;;8.96;65.01;93391.06;5013802;28;20862;-72
2021/10/16 03:50:34;;;;;;;0.70;0.70;;;;;;;9.07;65.01;93402.13;5011039;28;20056;-73
2021/10/16 03:53:07;;;;;;;2.35;1.27;;;;;;;8.97;65.00;93402.44;5006115;28;20041;-74
2021/10/16 03:55:33;;;;;;;1.52;1.15;;;;;;;8.94;65.11;93397.78;5006485;28;20021;-72
2021/10/16 03:57:58;;;;;;;0.70;0.68;;;;;;;8.85;65.62;93399.66;5011500;28;20415;-72
2021/10/16 04:00:25;;;;;;;1.20;0.93;;;;;;;8.88;65.52;93385.75;5000490;28;20116;-72
2021/10/16 04:02:53;;;;;;;2.03;1.25;;;;;;;8.89;65.02;93385.47;5013117;28;20041;-73
2021/10/16 04:05:18;;;;;;;2.75;1.70;;;;;;;8.96;65.26;93398.22;5008579;28;20519;-72
2021/10/16 04:07:44;;;;;;;2.47;1.50;;;;;;;8.77;65.93;93379.97;5008941;28;20083;-72
2021/10/16 04:10:09;;;;;;;3.33;1.38;;;;;;;8.80;65.62;93375.94;5008406;28;20032;-72
2021/10/16 04:12:35;;;;;;;3.45;1.83;;;;;;;8.97;65.68;93395.28;5008580;28;20049;-73
2021/10/16 04:15:01;;;;;;;2.05;1.67;;;;;;;9.08;65.27;93393.09;5009520;28;20029;-72
2021/10/16 04:17:26;;;;;;;2.42;1.55;;;;;;;9.11;64.84;93391.66;5009260;28;20928;-73
2021/10/16 04:19:52;;;;;;;2.40;1.75;;;;;;;9.00;65.44;93396.50;5013013;28;20056;-72
2021/10/16 04:22:17;;;;;;;1.45;1.35;;;;;;;9.12;65.01;93395.91;5018260;28;20053;-72
2021/10/16 04:24:43;;;;;;;2.03;1.23;;;;;;;9.16;64.64;93394.97;5009358;28;20084;-72
2021/10/16 04:27:08;;;;;;;1.63;0.95;;;;;;;9.13;64.63;93374.41;5008225;28;20042;-72
2021/10/16 04:29:34;;;;;;;0.88;0.82;;;;;;;8.93;64.12;93338.66;5008513;28;20469;-72
2021/10/16 04:31:59;;;;;;;0.80;0.80;;;;;;;9.31;64.04;93389.19;5008004;28;20072;-72
2021/10/16 04:34:25;;;;;;;2.25;1.23;;;;;;;9.19;64.01;93391.72;5014132;28;20029;-71
2021/10/16 04:36:50;;;;;;;1.33;0.93;;;;;;;9.03;64.50;93380.00;5003649;28;20037;-71
2021/10/16 04:39:15;;;;;;;0.90;0.90;;;;;;;8.90;64.95;93365.03;5007884;28;20041;-72
2021/10/16 04:41:41;;;;;;;2.45;0.85;;;;;;;8.86;65.34;93369.38;5007228;28;20040;-72
2021/10/16 04:44:06;;;;;;;1.42;1.10;;;;;;;9.09;65.00;93402.63;5006320;28;20045;-72
2021/10/16 04:46:32;;;;;;;0.73;0.73;;;;;;;8.93;64.90;93380.31;5013854;28;20517;-72
2021/10/16 04:48:57;;;;;;;3.55;1.25;;;;;;;8.89;65.05;93382.81;5009374;28;20698;-72
2021/10/16 04:51:23;;;;;;;1.38;1.15;;;;;;;8.84;65.07;93376.88;5002884;28;20046;-72
2021/10/16 04:53:49;;;;;;;2.58;1.48;;;;;;;8.82;66.00;93408.22;5006668;28;20128;-72
2021/10/16 04:56:14;;;;;;;1.30;1.17;;;;;;;8.74;65.93;93401.03;5010645;28;20105;-73
2021/10/16 04:58:39;;;;;;;1.60;1.30;;;;;;;8.90;65.61;93418.81;4999128;28;21319;-73
2021/10/16 05:01:05;;;;;;;4.72;2.33;;;;;;;8.80;66.08;93405.13;5013007;28;20021;-72
2021/10/16 05:03:30;;;;;;;3.20;2.10;;;;;;;8.93;65.55;93428.03;5009602;28;20286;-73
2021/10/16 05:05:56;;;;;;;4.68;2.22;;;;;;;8.99;65.76;93426.81;5007536;28;20977;-72
2021/10/16 05:08:21;;;;;;;3.70;1.73;;;;;;;9.03;64.57;93422.44;5012412;28;20053;-72
2021/10/16 05:10:47;;;;;;;2.60;1.48;;;;;;;9.07;64.90;93444.59;5009146;28;20033;-73
2021/10/16 05:13:12;;;;;;;2.10;1.10;;;;;;;9.07;65.00;93444.59;5011634;28;20571;-73
2021/10/16 05:15:38;;;;;;;2.20;1.30;;;;;;;8.99;65.49;93429.44;5009633;28;20044;-72
2021/10/16 05:18:04;;;;;;;2.13;1.20;;;;;;;9.16;64.98;93442.72;5016237;28;20103;-74
2021/10/16 05:20:31;;;;;;;3.85;1.90;;;;;;;9.20;64.55;93440.22;5005175;28;20092;-75
2021/10/16 05:22:56;;;;;;;4.22;2.13;;;;;;;9.15;64.57;93435.88;5010238;28;20122;-71
2021/10/16 05:25:22;;;;;;;0.80;0.80;;;;;;;9.24;64.42;93455.22;5007736;28;20029;-74
2021/10/16 05:27:49;;;;;;;1.10;0.90;;;;;;;9.21;64.79;93449.75;5010380;28;20046;-73
2021/10/16 05:30:17;;;;;;;1.38;0.93;;;;;;;9.35;64.12;93451.16;5011128;28;20029;-72
2021/10/16 05:32:43;;;;;;;1.70;1.10;;;;;;;9.28;64.20;93439.47;5012209;28;20455;-73
2021/10/16 05:35:09;;;;;;;2.25;1.33;;;;;;;9.37;64.56;93458.81;5014800;28;20037;-72
2021/10/16 05:37:34;;;;;;;4.97;2.20;;;;;;;9.02;64.62;93431.47;5007334;28;20033;-73
2021/10/16 05:39:59;;;;;;;2.42;1.75;;;;;;;9.13;64.88;93459.28;5010580;28;20041;-72
2021/10/16 05:42:25;;;;;;;3.42;1.60;;;;;;;8.93;65.92;93458.00;5015471;28;20518;-73
2021/10/16 05:44:50;;;;;;;2.08;1.65;;;;;;;8.70;66.40;93448.63;5010730;28;20560;-72
2021/10/16 05:47:16;;;;;;;2.50;1.80;;;;;;;8.71;66.97;93463.41;5010462;28;20048;-72
2021/10/16 05:49:42;;;;;;;2.88;1.63;;;;;;;8.82;67.05;93479.81;5009652;28;20141;-72
2021/10/16 05:52:07;;;;;;;4.32;2.05;;;;;;;8.94;67.15;93482.66;5002897;28;20529;-72
2021/10/16 05:54:32;;;;;;;5.13;2.53;;;;;;;9.10;66.71;93478.44;5014449;28;20041;-72
2021/10/16 05:56:58;;;;;;;4.35;2.25;;;;;;;9.13;65.70;93469.91;5012792;28;20042;-72
2021/10/16 05:59:23;;;;;;;3.47;1.77;;;;;;;9.24;65.23;93487.06;5004909;28;20087;-72
2021/10/16 06:01:49;;;;;;;3.63;2.13;;;;;;;9.18;65.84;93495.50;5030165;28;20246;-71
2021/10/16 06:04:14;;;;;;;4.15;1.60;;;;;;;9.16;65.91;93490.50;5013156;28;20418;-72
2021/10/16 06:06:39;;;;;;;3.30;1.95;;;;;;;9.07;65.69;93467.69;5009097;28;20300;-71
2021/10/16 06:09:05;;;;;;;11.70;6.43;;;;;;;9.08;66.21;93487.81;5010071;28;20044;-72
2021/10/16 06:11:31;;;;;;;6.88;3.85;;;;;;;9.02;66.43;93495.13;5014944;28;20045;-72
2021/10/16 06:13:56;;;;;;;4.18;2.55;;;;;;;8.72;66.86;93458.88;5005390;28;20442;-73
2021/10/16 06:16:22;;;;;;;2.55;1.85;;;;;;;8.97;67.08;93503.25;5009855;28;20030;-71
2021/10/16 06:18:47;;;;;;;2.80;1.73;;;;;;;9.07;66.49;93502.94;5007417;28;20038;-71
2021/10/16 06:21:12;;;;;;;3.63;1.80;;;;;;;9.00;66.74;93502.59;5010712;28;20451;-72
2021/10/16 06:23:38;;;;;;;5.00;2.00;;;;;;;8.95;67.22;93511.50;5005367;28;20054;-73
2021/10/16 06:26:05;;;;;;;2.85;1.83;;;;;;;8.95;67.16;93511.50;5010400;28;20607;-71
2021/10/16 06:28:30;;;;;;;4.95;2.30;;;;;;;8.91;67.75;93515.06;5005453;28;20033;-72
2021/10/16 06:30:57;;;;;;;2.88;2.38;;;;;;;8.88;67.52;93515.72;5012805;28;20046;-72
2021/10/16 06:33:25;;;;;;;2.92;1.42;;;;;;;8.75;67.47;93490.09;5009321;28;20052;-72
2021/10/16 06:35:53;;;;;;;4.63;2.08;;;;;;;8.78;67.86;93489.47;5004820;28;20052;-72
2021/10/16 06:38:19;;;;;;;3.05;1.50;;;;;;;8.98;67.54;93515.41;5012253;28;20387;-72
2021/10/16 06:40:45;;;;;;;4.72;1.88;;;;;;;8.89;67.96;93515.41;5002669;28;20337;-72
2021/10/16 06:43:10;;;;;;;2.28;1.38;;;;;;;8.77;68.27;93509.91;5010419;28;20902;-72
2021/10/16 06:45:36;;;;;;;1.42;1.30;;;;;;;8.97;67.76;93525.25;5005003;28;20037;-73
2021/10/16 06:48:01;;;;;;;1.85;1.20;;;;;;;8.96;67.78;93521.03;5007385;28;21596;-71
2021/10/16 06:50:27;;;;;;;2.20;1.30;;;;;;;8.94;68.16;93520.56;5012400;28;20042;-72
2021/10/16 06:52:52;;;;;;;3.47;2.03;;;;;;;8.87;68.24;93527.41;5007129;28;20076;-72
2021/10/16 06:55:17;;;;;;;4.97;2.88;;;;;;;8.82;68.73;93512.41;5006948;28;20022;-72
2021/10/16 06:57:43;;;;;;;2.25;1.70;;;;;;;8.86;68.77;93526.63;5009180;28;20048;-71
2021/10/16 07:00:09;;;;;;;3.15;1.70;;;;;;;8.90;69.23;93529.44;5012209;28;20033;-71
2021/10/16 07:02:34;;;;;;;3.90;1.30;;;;;;;8.90;69.37;93538.16;5017532;28;20044;-71
2021/10/16 07:04:59;;;;;;;5.05;1.83;;;;;;;8.85;69.33;93527.69;5010301;28;20494;-72
2021/10/16 07:07:25;;;;;;;2.78;1.65;;;;;;;9.08;68.98;93539.00;5011016;28;20585;-72
2021/10/16 07:09:50;;;;;;;1.20;1.00;;;;;;;8.73;68.70;93487.75;5009251;28;20029;-72
2021/10/16 07:12:16;;;;;;;2.22;1.52;;;;;;;9.19;68.66;93550.91;5012479;28;20504;-72
2021/10/16 07:14:41;;;;;;;15.60;7.18;;;;;;;9.19;68.22;93545.59;5008324;28;20132;-72
2021/10/16 07:17:07;;;;;;;5.68;3.30;;;;;;;9.30;68.15;93562.78;5009734;28;20103;-72
2021/10/16 07:19:33;;;;;;;3.20;2.60;;;;;;;9.36;67.82;93563.41;5012365;28;20472;-72
2021/10/16 07:21:59;;;;;;;1.75;1.40;;;;;;;9.29;67.83;93561.19;5010904;28;20628;-72
2021/10/16 07:24:24;;;;;;;2.58;1.63;;;;;;;9.26;68.42;93567.13;5006730;28;20039;-72
2021/10/16 07:26:50;;;;;;;1.95;1.58;;;;;;;9.33;68.50;93570.13;5012274;28;20042;-72
2021/10/16 07:29:15;;;;;;;1.70;1.15;;;;;;;9.37;68.16;93565.75;5009023;28;20299;-73
2021/10/16 07:31:41;;;;;;;1.52;1.30;;;;;;;9.40;68.17;93562.47;5007582;28;20168;-72
2021/10/16 07:34:06;;;;;;;1.38;1.20;;;;;;;9.38;67.93;93556.72;5005241;28;20039;-72
2021/10/16 07:36:36;;;;;;;1.38;1.10;;;;;;;9.51;67.26;93564.81;5005958;28;20073;-72
2021/10/16 07:39:07;;;;;;;1.63;1.15;;;;;;;9.64;67.17;93577.16;5008450;28;20467;-72
2021/10/16 07:41:33;;;;;;;3.33;2.22;;;;;;;9.66;67.42;93581.06;5011313;28;20377;-72
2021/10/16 07:43:59;;;;;;;7.43;5.03;;;;;;;9.76;67.13;93582.63;5006349;28;20069;-72
2021/10/16 07:46:26;;;;;;;5.28;2.80;;;;;;;9.80;66.77;93583.56;5004869;28;20108;-74
2021/10/16 07:48:52;;;;;;;6.32;3.28;;;;;;;9.59;67.34;93582.63;5010266;28;20033;-73
2021/10/16 07:51:17;;;;;;;2.50;1.60;;;;;;;9.44;67.46;93576.69;5006932;28;20408;-72
2021/10/16 07:53:43;;;;;;;2.08;1.45;;;;;;;9.35;68.10;93583.84;5009830;28;20090;-73
2021/10/16 07:56:08;;;;;;;2.63;1.58;;;;;;;9.34;68.31;93603.50;5006652;28;20041;-72
2021/10/16 07:58:35;;;;;;;1.92;1.13;;;;;;;9.36;68.90;93601.34;5012369;28;20033;-72
2021/10/16 08:01:01;;;;;;;5.63;2.20;;;;;;;9.32;69.04;93604.94;5003712;28;20038;-73
2021/10/16 08:03:26;;;;;;;2.53;2.05;;;;;;;9.20;69.54;93591.47;5014846;28;20059;-71
2021/10/16 08:05:51;;;;;;;2.85;1.70;;;;;;;9.30;69.76;93601.78;5003686;28;20037;-71
2021/10/16 08:08:17;;;;;;;4.57;2.25;;;;;;;9.16;70.12;93580.69;5005850;28;20037;-72
2021/10/16 08:10:42;;;;;;;2.65;1.88;;;;;;;9.42;69.93;93599.31;5012870;28;20029;-72
2021/10/16 08:13:08;;;;;;;10.25;5.22;;;;;;;9.48;69.13;93597.31;5010565;28;20029;-72
2021/10/16 08:15:34;;;;;;;3.58;1.80;;;;;;;9.63;68.21;93595.00;5008898;28;20535;-74
2021/10/16 08:18:00;;;;;;;5.57;2.30;;;;;;;9.77;67.42;93610.75;5005029;28;20049;-73
2021/10/16 08:20:26;;;;;;;3.30;2.67;;;;;;;9.83;67.46;93612.16;5012449;28;20594;-73
2021/10/16 08:22:52;;;;;;;3.22;2.10;;;;;;;9.72;67.67;93603.75;5002695;28;20038;-71
2021/10/16 08:25:17;;;;;;;3.58;1.90;;;;;;;9.91;67.62;93616.69;5014733;28;20603;-72
2021/10/16 08:27:46;;;;;;;1.95;1.50;;;;;;;10.02;66.71;93609.19;5009079;28;20050;-72
2021/10/16 08:30:12;;;;;;;3.00;1.98;;;;;;;9.93;66.54;93587.19;5013367;28;20033;-74
2021/10/16 08:32:38;;;;;;;7.60;3.55;;;;;;;10.04;66.89;93621.06;5006630;28;20128;-72
2021/10/16 08:35:04;;;;;;;3.40;2.42;;;;;;;9.89;67.53;93595.75;5011530;28;20037;-72
2021/10/16 08:37:29;;;;;;;3.13;1.52;;;;;;;9.91;67.17;93608.72;5010841;28;20496;-72
2021/10/16 08:39:55;;;;;;;4.38;2.22;;;;;;;10.05;66.96;93606.69;5011621;28;20041;-72
2021/10/16 08:42:20;;;;;;;6.55;2.47;;;;;;;9.97;67.50;93602.16;5013650;28;20037;-72
2021/10/16 08:44:45;;;;;;;5.22;2.47;;;;;;;10.12;67.32;93609.63;5016196;28;20033;-71
2021/10/16 08:47:11;;;;;;;3.53;2.22;;;;;;;10.09;66.71;93607.63;5018564;28;20042;-73
2021/10/16 08:49:37;;;;;;;1.98;1.60;;;;;;;10.15;66.78;93622.31;5010578;28;20029;-72
2021/10/16 08:52:03;;;;;;;8.77;3.13;;;;;;;10.03;67.07;93624.81;5017815;28;20043;-72
2021/10/16 08:54:28;;;;;;;5.40;2.72;;;;;;;10.05;67.66;93627.94;5012011;28;20037;-74
2021/10/16 08:56:54;;;;;;;4.55;2.15;;;;;;;9.94;67.49;93608.09;5015485;28;20116;-74
2021/10/16 08:59:19;;;;;;;2.60;1.95;;;;;;;10.15;67.32;93632.16;5014159;28;20068;-73
2021/10/16 09:02:02;;;;;;;2.17;1.83;;;;;;;10.16;67.86;93623.88;5012042;28;20091;-72
2021/10/16 09:04:29;;;;;;;2.13;1.75;;;;;;;10.22;68.06;93633.22;5013925;28;20030;-74
2021/10/16 09:06:54;;;;;;;2.83;1.73;;;;;;;10.29;67.77;93627.44;5013940;28;20037;-73
2021/10/16 09:09:30;;;;;;;1.98;1.30;;;;;;;10.35;67.57;93630.72;5013979;28;20049;-72
2021/10/16 09:11:57;;;;;;;3.97;1.90;;;;;;;10.27;67.62;93614.47;5014234;28;20050;-74
2021/10/16 09:14:28;;;;;;;3.28;1.85;;;;;;;10.42;67.57;93625.72;5012617;28;20500;-73
2021/10/16 09:17:05;;;;;;;3.67;1.98;;;;;;;10.27;67.43;93608.34;5007750;28;20044;-73
2021/10/16 09:19:32;;;;;;;3.47;1.83;;;;;;;10.50;66.98;93635.56;5016764;28;20037;-72
2021/10/16 09:22:06;;;;;;;5.05;3.20;;;;;;;10.53;67.15;93637.59;5013621;28;20515;-72
2021/10/16 09:24:32;;;;;;;5.53;3.72;;;;;;;10.62;67.58;93636.47;5008548;28;20140;-72
2021/10/16 09:27:09;;;;;;;4.40;2.42;;;;;;;10.50;67.58;93636.38;5014750;28;20069;-74
2021/10/16 09:29:37;;;;;;;3.38;2.42;;;;;;;10.35;66.84;93625.41;5011156;28;20033;-72
2021/10/16 09:32:11;;;;;;;2.95;2.65;;;;;;;10.49;67.46;93647.31;5012186;28;20069;-73
2021/10/16 09:34:48;;;;;;;2.43;1.80;;;;;;;10.50;66.42;93632.91;5004489;28;20551;-72
2021/10/16 09:37:19;;;;;;;2.45;1.70;;;;;;;10.46;66.51;93638.09;5013579;28;20049;-71
2021/10/16 09:39:47;;;;;;;1.88;1.58;;;;;;;10.51;66.95;93639.81;5001327;28;20041;-72
2021/10/16 09:42:16;;;;;;;1.80;1.55;;;;;;;10.46;67.54;93626.69;5010120;28;20053;-72
2021/10/16 09:44:44;;;;;;;2.03;1.73;;;;;;;10.49;67.92;93628.69;5007550;28;20034;-73
2021/10/16 09:47:18;;;;;;;4.13;2.30;;;;;;;10.67;67.73;93640.84;5005224;28;20516;-73
2021/10/16 09:49:48;;;;;;;3.33;1.87;;;;;;;10.82;66.68;93644.88;5010503;28;20046;-72
2021/10/16 09:52:15;;;;;;;3.92;2.85;;;;;;;10.94;66.76;93647.66;5012840;28;20329;-73
2021/10/16 09:54:42;;;;;;;3.85;2.63;;;;;;;10.98;67.04;93649.34;5010246;28;20092;-72
2021/10/16 09:57:10;;;;;;;3.72;2.60;;;;;;;11.01;66.58;93654.03;5009781;28;20498;-74
2021/10/16 09:59:39;;;;;;;2.42;2.05;;;;;;;11.04;66.58;93641.97;5009842;28;20037;-74
2021/10/16 10:02:06;;;;;;;2.88;2.10;;;;;;;11.06;65.69;93651.19;5007557;28;20116;-73
2021/10/16 10:04:36;;;;;;;2.53;1.95;;;;;;;11.02;66.42;93650.28;5011303;28;20021;-72
2021/10/16 10:07:02;;;;;;;3.10;2.65;;;;;;;11.05;66.00;93654.94;5012131;28;20100;-72
2021/10/16 10:09:29;;;;;;;3.88;2.92;;;;;;;11.09;66.53;93658.56;4995078;28;20136;-73
2021/10/16 10:11:55;;;;;;;2.97;2.42;;;;;;;11.18;64.81;93656.63;5010821;28;20037;-72
2021/10/16 10:14:21;;;;;;;4.25;2.45;;;;;;;11.04;65.20;93658.75;5010523;28;20051;-72
2021/10/16 10:16:48;;;;;;;3.13;2.28;;;;;;;11.05;65.85;93649.63;5010669;28;20172;-72
2021/10/16 10:19:16;;;;;;;3.33;2.35;;;;;;;11.10;65.43;93641.47;5013305;28;20040;-72
2021/10/16 10:21:42;;;;;;;8.52;3.63;;;;;;;11.22;65.77;93664.75;5013554;28;20454;-72
2021/10/16 10:24:11;;;;;;;6.88;3.30;;;;;;;11.13;66.20;93659.47;5011812;28;20038;-72
2021/10/16 10:26:42;;;;;;;9.82;5.10;;;;;;;11.24;65.74;93661.78;5013688;28;20512;-73
2021/10/16 10:29:10;;;;;;;5.03;3.50;;;;;;;11.36;64.70;93667.19;5010239;28;20087;-72
2021/10/16 10:31:45;;;;;;;5.50;3.38;;;;;;;11.34;65.13;93666.75;5012329;28;20033;-73
2021/10/16 10:34:19;;;;;;;4.07;1.75;;;;;;;11.42;65.05;93665.91;5013647;28;20810;-74
2021/10/16 10:36:53;;;;;;;1.67;1.27;;;;;;;11.40;65.51;93665.44;5007718;28;20046;-72
2021/10/16 10:39:32;;;;;;;3.15;2.40;;;;;;;11.39;64.54;93670.03;5010611;28;20752;-72
2021/10/16 10:41:58;;;;;;;6.50;2.65;;;;;;;11.17;64.66;93655.06;5010861;28;20042;-72
2021/10/16 10:44:40;;;;;;;3.03;2.55;;;;;;;11.22;65.49;93664.75;5025764;28;20036;-72
2021/10/16 10:47:25;;;;;;;3.58;2.70;;;;;;;11.14;66.23;93653.06;5010809;28;20713;-72
2021/10/16 10:49:53;;;;;;;3.92;2.92;;;;;;;11.09;65.45;93639.94;5011191;28;20041;-73
2021/10/16 10:52:21;;;;;;;4.32;2.28;;;;;;;11.35;64.90;93669.06;5004905;28;20040;-73
2021/10/16 10:54:59;;;;;;;2.97;2.33;;;;;;;11.35;65.10;93669.06;5009737;28;20179;-73
2021/10/16 10:57:43;;;;;;;4.22;2.50;;;;;;;11.42;65.01;93661.38;5011619;28;20136;-72
2021/10/16 11:00:14;;;;;;;4.35;2.63;;;;;;;11.32;64.82;93652.97;5010322;28;20581;-72
2021/10/16 11:02:40;;;;;;;5.88;3.28;;;;;;;11.48;65.01;93669.97;5013354;28;20115;-72
2021/10/16 11:05:31;;;;;;;5.03;3.53;;;;;;;11.55;65.05;93667.59;5011473;28;21054;-72
2021/10/16 11:08:09;;;;;;;4.28;2.05;;;;;;;11.65;64.70;93669.09;5003913;28;20511;-72
2021/10/16 11:10:36;;;;;;;5.88;2.85;;;;;;;11.70;64.58;93671.59;5003282;28;20516;-72
2021/10/16 11:13:20;;;;;;;6.93;3.75;;;;;;;11.76;64.47;93673.75;5002479;28;20045;-74
2021/10/16 11:15:56;;;;;;;4.32;2.75;;;;;;;11.73;64.08;93671.75;5008238;28;20050;-74
2021/10/16 11:18:21;;;;;;;3.72;2.88;;;;;;;11.77;63.91;93674.53;5011671;28;20036;-73
2021/10/16 11:20:47;;;;;;;3.10;2.60;;;;;;;11.72;63.87;93659.50;5010440;28;20041;-74
2021/10/16 11:23:18;;;;;;;5.60;3.97;;;;;;;11.90;63.25;93676.94;5012409;28;20462;-72
2021/10/16 11:25:56;;;;;;;3.15;2.85;;;;;;;11.90;62.83;93678.81;5010304;28;20037;-73
2021/10/16 11:28:21;;;;;;;3.03;2.00;;;;;;;11.85;62.56;93679.00;5013645;28;20028;-72
2021/10/16 11:30:48;;;;;;;2.88;2.05;;;;;;;11.77;62.52;93658.53;5011091;28;20042;-74
2021/10/16 11:33:19;;;;;;;3.05;2.60;;;;;;;11.91;62.54;93673.19;5011908;28;20574;-72
2021/10/16 11:35:47;;;;;;;5.85;2.40;;;;;;;11.85;62.57;93669.13;5009308;28;20579;-72
2021/10/16 11:38:16;;;;;;;4.43;3.10;;;;;;;11.85;62.60;93671.81;5008583;28;20065;-72